sensor_id;sensor_type;location;lat;lon;timestamp;temperature;humidity
18175;DHT22;9212;50.894;16.714;2022-11-20T00:36:25;-5.20;99.90
18175;DHT22;9212;50.894;16.714;2022-11-20T00:38:53;-6.60;99.90
18175;DHT22;9212;50.894;16.714;2022-11-20T00:41:20;-6.40;99.90
18175;DHT22;9212;50.894;16.714;2022-11-20T00:43:47;-7.10;99.90
18175;DHT22;9212;50.894;16.714;2022-11-20T00:46:16;-7.40;99.90
18175;DHT22;9212;50.894;16.714;2022-11-20T00:48:43;-6.50;99.90
18175;DHT22;9212;50.894;16.714;2022-11-20T00:51:12;-6.60;99.90
18175;DHT22;9212;50.894;16.714;2022-11-20T00:53:41;-6.20;99.90
18175;DHT22;9212;50.894;16.714;2022-11-20T00:56:10;-6.50;99.90
18175;DHT22;9212;50.894;16.714;2022-11-20T00:58:39;-6.40;99.90
18175;DHT22;9212;50.894;16.714;2022-11-20T01:01:08;-6.60;99.90
18175;DHT22;9212;50.894;16.714;2022-11-20T01:03:37;-6.60;99.90
18175;DHT22;9212;50.894;16.714;2022-11-20T01:06:06;-6.40;99.90
18175;DHT22;9212;50.894;16.714;2022-11-20T01:08:35;-6.50;99.90
18175;DHT22;9212;50.894;16.714;2022-11-20T01:11:05;-6.60;99.90
18175;DHT22;9212;50.894;16.714;2022-11-20T01:13:32;-6.30;99.90
18175;DHT22;9212;50.894;16.714;2022-11-20T01:16:08;-6.90;99.90
18175;DHT22;9212;50.894;16.714;2022-11-20T01:18:35;-6.70;99.90
18175;DHT22;9212;50.894;16.714;2022-11-20T01:21:03;-6.50;99.90
18175;DHT22;9212;50.894;16.714;2022-11-20T01:23:31;-5.70;99.90
18175;DHT22;9212;50.894;16.714;2022-11-20T01:26:00;-6.90;99.90
18175;DHT22;9212;50.894;16.714;2022-11-20T01:28:30;-6.70;99.90
18175;DHT22;9212;50.894;16.714;2022-11-20T01:30:57;-6.60;99.90
18175;DHT22;9212;50.894;16.714;2022-11-20T01:33:24;-6.70;99.90
18175;DHT22;9212;50.894;16.714;2022-11-20T01:35:52;-6.50;99.90
18175;DHT22;9212;50.894;16.714;2022-11-20T01:38:19;-6.60;99.90
18175;DHT22;9212;50.894;16.714;2022-11-20T01:40:54;-5.70;99.90
18175;DHT22;9212;50.894;16.714;2022-11-20T01:43:22;-6.60;99.90
18175;DHT22;9212;50.894;16.714;2022-11-20T01:46:15;-6.70;99.90
18175;DHT22;9212;50.894;16.714;2022-11-20T01:48:49;-6.50;99.90
18175;DHT22;9212;50.894;16.714;2022-11-20T01:51:23;-6.60;99.90
18175;DHT22;9212;50.894;16.714;2022-11-20T01:53:53;-6.60;99.90
18175;DHT22;9212;50.894;16.714;2022-11-20T01:56:21;-6.90;99.90
18175;DHT22;9212;50.894;16.714;2022-11-20T01:58:51;-6.70;99.90
18175;DHT22;9212;50.894;16.714;2022-11-20T02:01:21;-6.60;99.90
18175;DHT22;9212;50.894;16.714;2022-11-20T02:03:49;-6.00;99.90
18175;DHT22;9212;50.894;16.714;2022-11-20T02:06:21;-7.10;99.90
18175;DHT22;9212;50.894;16.714;2022-11-20T02:08:51;-6.70;99.90
18175;DHT22;9212;50.894;16.714;2022-11-20T02:11:18;-6.60;99.90
18175;DHT22;9212;50.894;16.714;2022-11-20T02:13:45;-7.40;99.90
18175;DHT22;9212;50.894;16.714;2022-11-20T02:16:15;-7.10;99.90
18175;DHT22;9212;50.894;16.714;2022-11-20T02:18:45;-7.20;99.90
18175;DHT22;9212;50.894;16.714;2022-11-20T02:21:20;-7.10;99.90
18175;DHT22;9212;50.894;16.714;2022-11-20T02:24:00;-6.80;99.90
18175;DHT22;9212;50.894;16.714;2022-11-20T02:26:30;-7.10;99.90
18175;DHT22;9212;50.894;16.714;2022-11-20T02:28:58;-6.90;99.90
18175;DHT22;9212;50.894;16.714;2022-11-20T02:31:26;-7.00;99.90
18175;DHT22;9212;50.894;16.714;2022-11-20T02:33:56;-7.50;99.90
18175;DHT22;9212;50.894;16.714;2022-11-20T02:36:25;-7.10;99.90
18175;DHT22;9212;50.894;16.714;2022-11-20T02:38:53;-8.00;99.90
18175;DHT22;9212;50.894;16.714;2022-11-20T02:41:22;-7.20;99.90
18175;DHT22;9212;50.894;16.714;2022-11-20T02:43:56;-7.10;99.90
18175;DHT22;9212;50.894;16.714;2022-11-20T02:46:23;-7.30;99.90
18175;DHT22;9212;50.894;16.714;2022-11-20T02:48:50;-7.00;99.90
18175;DHT22;9212;50.894;16.714;2022-11-20T02:51:17;-7.30;99.90
18175;DHT22;9212;50.894;16.714;2022-11-20T02:53:44;-6.90;99.90
18175;DHT22;9212;50.894;16.714;2022-11-20T02:56:11;-7.20;99.90
18175;DHT22;9212;50.894;16.714;2022-11-20T02:58:39;-7.10;99.90
18175;DHT22;9212;50.894;16.714;2022-11-20T03:01:06;-6.20;99.90
18175;DHT22;9212;50.894;16.714;2022-11-20T03:03:33;-7.00;99.90
18175;DHT22;9212;50.894;16.714;2022-11-20T03:06:00;-7.00;99.90
18175;DHT22;9212;50.894;16.714;2022-11-20T03:08:27;-7.00;99.90
18175;DHT22;9212;50.894;16.714;2022-11-20T03:10:54;-7.10;99.90
18175;DHT22;9212;50.894;16.714;2022-11-20T03:13:21;-7.30;99.90
18175;DHT22;9212;50.894;16.714;2022-11-20T03:15:49;-6.70;99.90
18175;DHT22;9212;50.894;16.714;2022-11-20T03:18:16;-7.10;99.90
18175;DHT22;9212;50.894;16.714;2022-11-20T03:20:43;-7.10;99.90
18175;DHT22;9212;50.894;16.714;2022-11-20T03:25:37;-7.10;99.90
18175;DHT22;9212;50.894;16.714;2022-11-20T03:28:04;-7.20;99.90
18175;DHT22;9212;50.894;16.714;2022-11-20T03:30:31;-7.10;99.90
18175;DHT22;9212;50.894;16.714;2022-11-20T03:33:00;-6.90;99.90
18175;DHT22;9212;50.894;16.714;2022-11-20T03:37:54;-7.40;99.90
18175;DHT22;9212;50.894;16.714;2022-11-20T03:40:21;-5.80;99.90
18175;DHT22;9212;50.894;16.714;2022-11-20T03:42:48;-7.00;99.90
18175;DHT22;9212;50.894;16.714;2022-11-20T03:45:16;-7.10;99.90
18175;DHT22;9212;50.894;16.714;2022-11-20T03:47:44;-7.30;99.90
18175;DHT22;9212;50.894;16.714;2022-11-20T03:50:13;-7.20;99.90
18175;DHT22;9212;50.894;16.714;2022-11-20T03:52:41;-7.10;99.90
18175;DHT22;9212;50.894;16.714;2022-11-20T03:55:08;-7.10;99.90
18175;DHT22;9212;50.894;16.714;2022-11-20T03:57:35;-7.20;99.90
18175;DHT22;9212;50.894;16.714;2022-11-20T04:00:03;-7.40;99.90
18175;DHT22;9212;50.894;16.714;2022-11-20T04:02:30;-7.10;99.90
18175;DHT22;9212;50.894;16.714;2022-11-20T04:07:25;-6.30;99.90
18175;DHT22;9212;50.894;16.714;2022-11-20T04:09:52;-6.50;99.90
18175;DHT22;9212;50.894;16.714;2022-11-20T04:12:19;-7.50;99.90
18175;DHT22;9212;50.894;16.714;2022-11-20T04:14:46;-7.10;99.90
18175;DHT22;9212;50.894;16.714;2022-11-20T04:17:13;-7.30;99.90
18175;DHT22;9212;50.894;16.714;2022-11-20T04:19:40;-7.10;99.90
18175;DHT22;9212;50.894;16.714;2022-11-20T04:22:07;-7.30;99.90
18175;DHT22;9212;50.894;16.714;2022-11-20T04:24:35;-7.20;99.90
18175;DHT22;9212;50.894;16.714;2022-11-20T04:27:02;-7.30;99.90
18175;DHT22;9212;50.894;16.714;2022-11-20T04:29:29;-6.10;99.90
18175;DHT22;9212;50.894;16.714;2022-11-20T04:31:56;-7.40;99.90
18175;DHT22;9212;50.894;16.714;2022-11-20T04:34:23;-7.50;99.90
18175;DHT22;9212;50.894;16.714;2022-11-20T04:36:50;-6.70;99.90
18175;DHT22;9212;50.894;16.714;2022-11-20T04:39:17;-7.40;99.90
18175;DHT22;9212;50.894;16.714;2022-11-20T04:41:45;-7.40;99.90
18175;DHT22;9212;50.894;16.714;2022-11-20T04:44:12;-7.50;99.90
18175;DHT22;9212;50.894;16.714;2022-11-20T04:46:41;-7.40;99.90
18175;DHT22;9212;50.894;16.714;2022-11-20T04:49:08;-7.60;99.90
18175;DHT22;9212;50.894;16.714;2022-11-20T04:51:37;-7.80;99.90
18175;DHT22;9212;50.894;16.714;2022-11-20T04:54:04;-7.50;99.90
18175;DHT22;9212;50.894;16.714;2022-11-20T04:59:01;-7.60;99.90
18175;DHT22;9212;50.894;16.714;2022-11-20T05:01:28;-7.60;99.90
18175;DHT22;9212;50.894;16.714;2022-11-20T05:03:56;-7.70;99.90
18175;DHT22;9212;50.894;16.714;2022-11-20T05:06:23;-7.70;99.90
18175;DHT22;9212;50.894;16.714;2022-11-20T05:08:50;-7.60;99.90
18175;DHT22;9212;50.894;16.714;2022-11-20T05:11:19;-7.80;99.90
18175;DHT22;9212;50.894;16.714;2022-11-20T05:13:46;-7.70;99.90
18175;DHT22;9212;50.894;16.714;2022-11-20T05:16:16;-7.60;99.90
18175;DHT22;9212;50.894;16.714;2022-11-20T05:18:44;-7.60;99.90
18175;DHT22;9212;50.894;16.714;2022-11-20T05:21:12;-7.80;99.90
18175;DHT22;9212;50.894;16.714;2022-11-20T05:23:40;-7.60;99.90
18175;DHT22;9212;50.894;16.714;2022-11-20T05:26:08;-7.90;99.90
18175;DHT22;9212;50.894;16.714;2022-11-20T05:28:38;-7.60;99.90
18175;DHT22;9212;50.894;16.714;2022-11-20T05:31:06;-7.80;99.90
18175;DHT22;9212;50.894;16.714;2022-11-20T05:33:35;-7.60;99.90
18175;DHT22;9212;50.894;16.714;2022-11-20T05:36:03;-7.90;99.90
18175;DHT22;9212;50.894;16.714;2022-11-20T05:38:30;-7.60;99.90
18175;DHT22;9212;50.894;16.714;2022-11-20T05:41:03;-7.70;99.90
18175;DHT22;9212;50.894;16.714;2022-11-20T05:43:32;-7.70;99.90
18175;DHT22;9212;50.894;16.714;2022-11-20T05:46:00;-7.70;99.90
18175;DHT22;9212;50.894;16.714;2022-11-20T05:48:27;-7.70;99.90
18175;DHT22;9212;50.894;16.714;2022-11-20T05:50:56;-7.80;99.90
18175;DHT22;9212;50.894;16.714;2022-11-20T05:53:23;-7.90;99.90
18175;DHT22;9212;50.894;16.714;2022-11-20T05:55:57;-8.40;99.90
18175;DHT22;9212;50.894;16.714;2022-11-20T05:58:24;-7.50;99.90
18175;DHT22;9212;50.894;16.714;2022-11-20T06:00:51;-7.20;99.90
18175;DHT22;9212;50.894;16.714;2022-11-20T06:03:18;-7.70;99.90
18175;DHT22;9212;50.894;16.714;2022-11-20T06:05:45;-7.80;99.90
18175;DHT22;9212;50.894;16.714;2022-11-20T06:08:13;-7.70;99.90
18175;DHT22;9212;50.894;16.714;2022-11-20T06:10:40;-8.00;99.90
18175;DHT22;9212;50.894;16.714;2022-11-20T06:13:07;-7.60;99.90
18175;DHT22;9212;50.894;16.714;2022-11-20T06:15:34;-7.70;99.90
18175;DHT22;9212;50.894;16.714;2022-11-20T06:18:00;-7.70;99.90
18175;DHT22;9212;50.894;16.714;2022-11-20T06:20:27;-7.70;99.90
18175;DHT22;9212;50.894;16.714;2022-11-20T06:22:54;-7.40;99.90
18175;DHT22;9212;50.894;16.714;2022-11-20T06:25:22;-7.60;99.90
18175;DHT22;9212;50.894;16.714;2022-11-20T06:27:49;-7.50;99.90
18175;DHT22;9212;50.894;16.714;2022-11-20T06:30:16;-7.70;99.90
18175;DHT22;9212;50.894;16.714;2022-11-20T06:32:43;-7.60;99.90
18175;DHT22;9212;50.894;16.714;2022-11-20T06:35:10;-7.70;99.90
18175;DHT22;9212;50.894;16.714;2022-11-20T06:37:37;-7.40;99.90
18175;DHT22;9212;50.894;16.714;2022-11-20T06:40:05;-7.60;99.90
18175;DHT22;9212;50.894;16.714;2022-11-20T06:42:34;-7.30;99.90
18175;DHT22;9212;50.894;16.714;2022-11-20T06:45:01;-7.30;99.90
18175;DHT22;9212;50.894;16.714;2022-11-20T06:47:28;-7.50;99.90
18175;DHT22;9212;50.894;16.714;2022-11-20T06:49:54;-7.30;99.90
18175;DHT22;9212;50.894;16.714;2022-11-20T06:52:21;-7.40;99.90
18175;DHT22;9212;50.894;16.714;2022-11-20T06:54:48;-7.30;99.90
18175;DHT22;9212;50.894;16.714;2022-11-20T06:57:15;-7.50;99.90
18175;DHT22;9212;50.894;16.714;2022-11-20T06:59:44;-7.30;99.90
18175;DHT22;9212;50.894;16.714;2022-11-20T07:02:11;-7.40;99.90
18175;DHT22;9212;50.894;16.714;2022-11-20T07:04:38;-7.10;99.90
18175;DHT22;9212;50.894;16.714;2022-11-20T07:07:05;-7.30;99.90
18175;DHT22;9212;50.894;16.714;2022-11-20T07:09:32;-7.10;99.90
18175;DHT22;9212;50.894;16.714;2022-11-20T07:12:00;-7.40;99.90
18175;DHT22;9212;50.894;16.714;2022-11-20T07:14:27;-7.40;99.90
18175;DHT22;9212;50.894;16.714;2022-11-20T07:16:55;-7.10;99.90
18175;DHT22;9212;50.894;16.714;2022-11-20T07:19:22;-7.20;99.90
18175;DHT22;9212;50.894;16.714;2022-11-20T07:21:49;-7.00;99.90
18175;DHT22;9212;50.894;16.714;2022-11-20T07:24:16;-7.10;99.90
18175;DHT22;9212;50.894;16.714;2022-11-20T07:26:46;-6.90;99.90
18175;DHT22;9212;50.894;16.714;2022-11-20T07:29:13;-7.10;99.90
18175;DHT22;9212;50.894;16.714;2022-11-20T07:31:39;-6.40;99.90
18175;DHT22;9212;50.894;16.714;2022-11-20T07:34:08;-6.60;99.90
18175;DHT22;9212;50.894;16.714;2022-11-20T07:36:35;-6.50;99.90
18175;DHT22;9212;50.894;16.714;2022-11-20T07:39:02;-6.30;99.90
18175;DHT22;9212;50.894;16.714;2022-11-20T07:41:31;-6.20;99.90
18175;DHT22;9212;50.894;16.714;2022-11-20T07:43:58;-6.00;99.90
18175;DHT22;9212;50.894;16.714;2022-11-20T07:46:25;-6.10;99.90
18175;DHT22;9212;50.894;16.714;2022-11-20T07:48:52;-5.90;99.90
18175;DHT22;9212;50.894;16.714;2022-11-20T07:51:20;-5.80;99.90
18175;DHT22;9212;50.894;16.714;2022-11-20T07:53:50;-5.60;99.90
18175;DHT22;9212;50.894;16.714;2022-11-20T07:56:17;-5.50;99.90
18175;DHT22;9212;50.894;16.714;2022-11-20T07:58:44;-5.40;99.90
18175;DHT22;9212;50.894;16.714;2022-11-20T08:01:11;-5.50;99.90
18175;DHT22;9212;50.894;16.714;2022-11-20T08:03:38;-5.60;99.90
18175;DHT22;9212;50.894;16.714;2022-11-20T08:06:05;-5.00;99.90
18175;DHT22;9212;50.894;16.714;2022-11-20T08:08:34;-5.00;99.90
18175;DHT22;9212;50.894;16.714;2022-11-20T08:11:01;-5.20;99.90
18175;DHT22;9212;50.894;16.714;2022-11-20T08:13:42;-4.70;99.90
18175;DHT22;9212;50.894;16.714;2022-11-20T08:16:26;-4.70;99.90
18175;DHT22;9212;50.894;16.714;2022-11-20T08:18:53;-5.10;99.90
18175;DHT22;9212;50.894;16.714;2022-11-20T08:21:20;-4.40;99.90
18175;DHT22;9212;50.894;16.714;2022-11-20T08:23:49;-4.50;99.90
18175;DHT22;9212;50.894;16.714;2022-11-20T08:26:15;-2.10;99.90
18175;DHT22;9212;50.894;16.714;2022-11-20T08:28:42;-3.90;99.90
18175;DHT22;9212;50.894;16.714;2022-11-20T08:31:09;-4.30;99.90
18175;DHT22;9212;50.894;16.714;2022-11-20T08:33:36;-4.10;99.90
18175;DHT22;9212;50.894;16.714;2022-11-20T08:36:04;-2.50;99.90
18175;DHT22;9212;50.894;16.714;2022-11-20T08:38:32;-3.70;99.90
18175;DHT22;9212;50.894;16.714;2022-11-20T08:41:02;-4.10;99.90
18175;DHT22;9212;50.894;16.714;2022-11-20T08:43:47;-3.00;99.90
18175;DHT22;9212;50.894;16.714;2022-11-20T08:46:14;-3.50;99.90
18175;DHT22;9212;50.894;16.714;2022-11-20T08:48:41;-2.70;99.90
18175;DHT22;9212;50.894;16.714;2022-11-20T08:51:08;-3.30;99.90
18175;DHT22;9212;50.894;16.714;2022-11-20T08:53:35;-2.90;99.90
18175;DHT22;9212;50.894;16.714;2022-11-20T08:56:04;-3.20;99.90
18175;DHT22;9212;50.894;16.714;2022-11-20T08:58:31;-2.90;99.90
18175;DHT22;9212;50.894;16.714;2022-11-20T09:00:58;-2.90;99.90
18175;DHT22;9212;50.894;16.714;2022-11-20T09:03:25;-2.80;99.90
18175;DHT22;9212;50.894;16.714;2022-11-20T09:05:57;-2.40;99.90
18175;DHT22;9212;50.894;16.714;2022-11-20T09:08:24;-0.90;99.90
18175;DHT22;9212;50.894;16.714;2022-11-20T09:10:51;-2.10;99.90
18175;DHT22;9212;50.894;16.714;2022-11-20T09:13:20;-2.60;99.90
18175;DHT22;9212;50.894;16.714;2022-11-20T09:15:47;-2.40;99.90
18175;DHT22;9212;50.894;16.714;2022-11-20T09:18:18;-2.20;99.90
18175;DHT22;9212;50.894;16.714;2022-11-20T09:20:45;-2.10;99.90
18175;DHT22;9212;50.894;16.714;2022-11-20T09:23:14;-1.80;99.90
18175;DHT22;9212;50.894;16.714;2022-11-20T09:25:42;-1.80;99.90
18175;DHT22;9212;50.894;16.714;2022-11-20T09:28:09;-1.80;99.90
18175;DHT22;9212;50.894;16.714;2022-11-20T09:30:37;-1.70;99.90
18175;DHT22;9212;50.894;16.714;2022-11-20T09:33:05;-1.90;99.90
18175;DHT22;9212;50.894;16.714;2022-11-20T09:35:32;-0.60;99.90
18175;DHT22;9212;50.894;16.714;2022-11-20T09:38:04;-1.80;99.90
18175;DHT22;9212;50.894;16.714;2022-11-20T09:43:03;-1.30;99.90
18175;DHT22;9212;50.894;16.714;2022-11-20T09:45:57;-1.20;99.90
18175;DHT22;9212;50.894;16.714;2022-11-20T09:48:42;-1.30;99.90
18175;DHT22;9212;50.894;16.714;2022-11-20T09:51:20;-0.50;99.90
18175;DHT22;9212;50.894;16.714;2022-11-20T09:54:00;-0.80;99.90
18175;DHT22;9212;50.894;16.714;2022-11-20T09:56:30;-1.00;99.90
18175;DHT22;9212;50.894;16.714;2022-11-20T09:59:03;-0.60;99.90
18175;DHT22;9212;50.894;16.714;2022-11-20T10:01:35;-0.50;99.90
18175;DHT22;9212;50.894;16.714;2022-11-20T10:04:06;-0.50;99.90
18175;DHT22;9212;50.894;16.714;2022-11-20T10:06:41;-0.70;99.90
18175;DHT22;9212;50.894;16.714;2022-11-20T10:09:18;0.10;99.90
18175;DHT22;9212;50.894;16.714;2022-11-20T10:11:55;1.70;99.90
18175;DHT22;9212;50.894;16.714;2022-11-20T10:14:33;0.50;99.90
18175;DHT22;9212;50.894;16.714;2022-11-20T10:17:15;0.70;99.90
18175;DHT22;9212;50.894;16.714;2022-11-20T10:19:59;0.30;99.90
18175;DHT22;9212;50.894;16.714;2022-11-20T10:22:38;1.50;99.90
18175;DHT22;9212;50.894;16.714;2022-11-20T10:25:13;1.30;99.90
18175;DHT22;9212;50.894;16.714;2022-11-20T10:27:53;0.50;99.90
18175;DHT22;9212;50.894;16.714;2022-11-20T10:30:22;1.40;99.90
18175;DHT22;9212;50.894;16.714;2022-11-20T10:32:55;1.00;99.90
18175;DHT22;9212;50.894;16.714;2022-11-20T10:35:28;1.80;99.90
18175;DHT22;9212;50.894;16.714;2022-11-20T10:38:00;1.80;99.90
18175;DHT22;9212;50.894;16.714;2022-11-20T10:40:32;2.10;99.90
18175;DHT22;9212;50.894;16.714;2022-11-20T10:43:02;1.40;99.90
18175;DHT22;9212;50.894;16.714;2022-11-20T10:45:43;1.50;99.90
18175;DHT22;9212;50.894;16.714;2022-11-20T10:48:16;1.80;99.90
18175;DHT22;9212;50.894;16.714;2022-11-20T10:51:16;1.70;99.90
18175;DHT22;9212;50.894;16.714;2022-11-20T10:53:54;2.00;99.90
18175;DHT22;9212;50.894;16.714;2022-11-20T10:56:26;2.00;99.90
18175;DHT22;9212;50.894;16.714;2022-11-20T11:01:45;1.80;99.90
18175;DHT22;9212;50.894;16.714;2022-11-20T11:04:33;1.80;99.90
18175;DHT22;9212;50.894;16.714;2022-11-20T11:07:08;1.90;99.90
18175;DHT22;9212;50.894;16.714;2022-11-20T11:09:39;1.90;99.90
18175;DHT22;9212;50.894;16.714;2022-11-20T11:12:08;1.80;99.90
18175;DHT22;9212;50.894;16.714;2022-11-20T11:14:44;1.80;99.90
18175;DHT22;9212;50.894;16.714;2022-11-20T11:17:28;3.90;99.90
18175;DHT22;9212;50.894;16.714;2022-11-20T11:20:03;2.00;99.90
18175;DHT22;9212;50.894;16.714;2022-11-20T11:22:32;1.40;99.90
18175;DHT22;9212;50.894;16.714;2022-11-20T11:25:00;3.00;99.90
18175;DHT22;9212;50.894;16.714;2022-11-20T11:27:27;1.70;99.90
18175;DHT22;9212;50.894;16.714;2022-11-20T11:30:13;2.10;99.90
18175;DHT22;9212;50.894;16.714;2022-11-20T11:35:21;1.80;99.90
18175;DHT22;9212;50.894;16.714;2022-11-20T11:37:48;1.60;99.90
18175;DHT22;9212;50.894;16.714;2022-11-20T11:40:18;1.80;99.90
18175;DHT22;9212;50.894;16.714;2022-11-20T11:42:52;1.80;99.90
18175;DHT22;9212;50.894;16.714;2022-11-20T11:45:21;1.60;99.90
18175;DHT22;9212;50.894;16.714;2022-11-20T11:47:48;1.90;99.90
18175;DHT22;9212;50.894;16.714;2022-11-20T11:50:21;2.00;99.90
18175;DHT22;9212;50.894;16.714;2022-11-20T11:53:03;2.70;99.90
18175;DHT22;9212;50.894;16.714;2022-11-20T11:55:36;3.30;99.90
18175;DHT22;9212;50.894;16.714;2022-11-20T11:58:17;2.10;99.90
18175;DHT22;9212;50.894;16.714;2022-11-20T12:00:53;1.70;99.90
18175;DHT22;9212;50.894;16.714;2022-11-20T12:03:27;2.80;99.90
18175;DHT22;9212;50.894;16.714;2022-11-20T12:05:58;2.80;99.90
18175;DHT22;9212;50.894;16.714;2022-11-20T12:08:31;2.30;99.90
18175;DHT22;9212;50.894;16.714;2022-11-20T12:11:03;1.70;99.90
18175;DHT22;9212;50.894;16.714;2022-11-20T12:13:39;2.10;99.90
18175;DHT22;9212;50.894;16.714;2022-11-20T12:16:11;1.90;99.90
18175;DHT22;9212;50.894;16.714;2022-11-20T12:18:40;1.70;99.90
18175;DHT22;9212;50.894;16.714;2022-11-20T12:21:18;1.70;99.90
18175;DHT22;9212;50.894;16.714;2022-11-20T12:23:54;2.30;99.90
18175;DHT22;9212;50.894;16.714;2022-11-20T12:26:40;1.70;99.90
18175;DHT22;9212;50.894;16.714;2022-11-20T12:29:15;1.80;99.90
18175;DHT22;9212;50.894;16.714;2022-11-20T12:31:57;1.80;99.90
18175;DHT22;9212;50.894;16.714;2022-11-20T12:34:46;3.00;99.90
18175;DHT22;9212;50.894;16.714;2022-11-20T12:37:28;1.80;99.90
18175;DHT22;9212;50.894;16.714;2022-11-20T12:40:00;2.30;99.90
18175;DHT22;9212;50.894;16.714;2022-11-20T12:42:38;2.30;99.90
18175;DHT22;9212;50.894;16.714;2022-11-20T12:45:46;1.50;99.90
18175;DHT22;9212;50.894;16.714;2022-11-20T12:48:49;1.50;99.90
18175;DHT22;9212;50.894;16.714;2022-11-20T12:51:30;1.50;99.90
18175;DHT22;9212;50.894;16.714;2022-11-20T12:54:20;1.30;99.90
18175;DHT22;9212;50.894;16.714;2022-11-20T12:56:56;1.40;99.90
18175;DHT22;9212;50.894;16.714;2022-11-20T12:59:38;1.30;99.90
18175;DHT22;9212;50.894;16.714;2022-11-20T13:02:23;2.60;99.90
18175;DHT22;9212;50.894;16.714;2022-11-20T13:05:24;1.30;99.90
18175;DHT22;9212;50.894;16.714;2022-11-20T13:07:53;1.70;99.90
18175;DHT22;9212;50.894;16.714;2022-11-20T13:10:30;1.90;99.90
18175;DHT22;9212;50.894;16.714;2022-11-20T13:13:05;1.20;99.90
18175;DHT22;9212;50.894;16.714;2022-11-20T13:15:45;3.00;99.90
18175;DHT22;9212;50.894;16.714;2022-11-20T13:20:43;1.30;99.90
18175;DHT22;9212;50.894;16.714;2022-11-20T13:23:23;0.90;99.90
18175;DHT22;9212;50.894;16.714;2022-11-20T13:26:03;1.10;99.90
18175;DHT22;9212;50.894;16.714;2022-11-20T13:28:30;1.70;99.90
18175;DHT22;9212;50.894;16.714;2022-11-20T13:30:58;1.10;99.90
18175;DHT22;9212;50.894;16.714;2022-11-20T13:33:29;1.70;99.90
18175;DHT22;9212;50.894;16.714;2022-11-20T13:35:58;2.30;99.90
18175;DHT22;9212;50.894;16.714;2022-11-20T13:38:25;1.10;99.90
18175;DHT22;9212;50.894;16.714;2022-11-20T13:40:55;1.00;99.90
18175;DHT22;9212;50.894;16.714;2022-11-20T13:43:28;1.30;99.90
18175;DHT22;9212;50.894;16.714;2022-11-20T13:46:00;1.10;99.90
18175;DHT22;9212;50.894;16.714;2022-11-20T13:48:31;0.80;99.90
18175;DHT22;9212;50.894;16.714;2022-11-20T13:51:14;0.80;99.90
18175;DHT22;9212;50.894;16.714;2022-11-20T13:53:58;0.80;99.90
18175;DHT22;9212;50.894;16.714;2022-11-20T13:56:37;1.10;99.90
18175;DHT22;9212;50.894;16.714;2022-11-20T13:59:14;0.70;99.90
18175;DHT22;9212;50.894;16.714;2022-11-20T14:01:46;0.50;99.90
18175;DHT22;9212;50.894;16.714;2022-11-20T14:04:17;0.50;99.90
18175;DHT22;9212;50.894;16.714;2022-11-20T14:06:45;0.50;99.90
18175;DHT22;9212;50.894;16.714;2022-11-20T14:09:25;0.40;99.90
18175;DHT22;9212;50.894;16.714;2022-11-20T14:11:54;0.40;99.90
18175;DHT22;9212;50.894;16.714;2022-11-20T14:14:25;0.30;99.90
18175;DHT22;9212;50.894;16.714;2022-11-20T14:17:04;0.30;99.90
18175;DHT22;9212;50.894;16.714;2022-11-20T14:19:31;1.20;99.90
18175;DHT22;9212;50.894;16.714;2022-11-20T14:22:10;0.30;99.90
18175;DHT22;9212;50.894;16.714;2022-11-20T14:24:42;-0.10;99.90
18175;DHT22;9212;50.894;16.714;2022-11-20T14:27:14;-0.20;99.90
18175;DHT22;9212;50.894;16.714;2022-11-20T14:29:43;0.00;99.90
18175;DHT22;9212;50.894;16.714;2022-11-20T14:32:11;-0.30;99.90
18175;DHT22;9212;50.894;16.714;2022-11-20T14:34:43;-0.20;99.90
18175;DHT22;9212;50.894;16.714;2022-11-20T14:37:12;-0.50;99.90
18175;DHT22;9212;50.894;16.714;2022-11-20T14:39:42;-0.60;99.90
18175;DHT22;9212;50.894;16.714;2022-11-20T14:42:17;0.70;99.90
18175;DHT22;9212;50.894;16.714;2022-11-20T14:44:45;-0.60;99.90
18175;DHT22;9212;50.894;16.714;2022-11-20T14:47:13;-0.60;99.90
18175;DHT22;9212;50.894;16.714;2022-11-20T14:49:42;-0.50;99.90
18175;DHT22;9212;50.894;16.714;2022-11-20T14:52:13;1.00;99.90
18175;DHT22;9212;50.894;16.714;2022-11-20T14:54:44;-0.80;99.90
18175;DHT22;9212;50.894;16.714;2022-11-20T14:57:23;-1.10;99.90
18175;DHT22;9212;50.894;16.714;2022-11-20T14:59:51;-0.80;99.90
18175;DHT22;9212;50.894;16.714;2022-11-20T15:02:18;-0.90;99.90
18175;DHT22;9212;50.894;16.714;2022-11-20T15:04:46;-0.90;99.90
18175;DHT22;9212;50.894;16.714;2022-11-20T15:07:23;-0.90;99.90
18175;DHT22;9212;50.894;16.714;2022-11-20T15:10:00;-1.00;99.90
18175;DHT22;9212;50.894;16.714;2022-11-20T15:12:29;-1.10;99.90
18175;DHT22;9212;50.894;16.714;2022-11-20T15:14:56;-1.10;99.90
18175;DHT22;9212;50.894;16.714;2022-11-20T15:17:23;-1.10;99.90
18175;DHT22;9212;50.894;16.714;2022-11-20T15:19:51;-1.20;99.90
18175;DHT22;9212;50.894;16.714;2022-11-20T15:22:19;-1.00;99.90
18175;DHT22;9212;50.894;16.714;2022-11-20T15:24:45;-1.10;99.90
18175;DHT22;9212;50.894;16.714;2022-11-20T15:27:12;-1.50;99.90
18175;DHT22;9212;50.894;16.714;2022-11-20T15:29:41;-1.40;99.90
18175;DHT22;9212;50.894;16.714;2022-11-20T15:32:08;-1.00;99.90
18175;DHT22;9212;50.894;16.714;2022-11-20T15:34:35;-1.30;99.90
18175;DHT22;9212;50.894;16.714;2022-11-20T15:37:02;-1.70;99.90
18175;DHT22;9212;50.894;16.714;2022-11-20T15:39:29;-1.40;99.90
18175;DHT22;9212;50.894;16.714;2022-11-20T15:41:56;-1.60;99.90
18175;DHT22;9212;50.894;16.714;2022-11-20T15:44:23;-1.50;99.90
18175;DHT22;9212;50.894;16.714;2022-11-20T15:46:52;-1.40;99.90
18175;DHT22;9212;50.894;16.714;2022-11-20T15:49:18;-1.50;99.90
18175;DHT22;9212;50.894;16.714;2022-11-20T15:51:48;-1.20;99.90
18175;DHT22;9212;50.894;16.714;2022-11-20T15:54:17;-0.60;99.90
18175;DHT22;9212;50.894;16.714;2022-11-20T15:56:45;-1.50;99.90
18175;DHT22;9212;50.894;16.714;2022-11-20T15:59:12;-0.60;99.90
18175;DHT22;9212;50.894;16.714;2022-11-20T16:01:40;-1.50;99.90
18175;DHT22;9212;50.894;16.714;2022-11-20T16:04:11;-1.70;99.90
18175;DHT22;9212;50.894;16.714;2022-11-20T16:06:38;-1.40;99.90
18175;DHT22;9212;50.894;16.714;2022-11-20T16:09:05;-1.60;99.90
18175;DHT22;9212;50.894;16.714;2022-11-20T16:11:32;-1.70;99.90
18175;DHT22;9212;50.894;16.714;2022-11-20T16:13:59;-1.90;99.90
18175;DHT22;9212;50.894;16.714;2022-11-20T16:16:43;-1.60;99.90
18175;DHT22;9212;50.894;16.714;2022-11-20T16:19:12;-1.10;99.90
18175;DHT22;9212;50.894;16.714;2022-11-20T16:21:39;-2.00;99.90
18175;DHT22;9212;50.894;16.714;2022-11-20T16:24:08;-2.20;99.90
18175;DHT22;9212;50.894;16.714;2022-11-20T16:26:36;-2.10;99.90
18175;DHT22;9212;50.894;16.714;2022-11-20T16:29:04;-2.30;99.90
18175;DHT22;9212;50.894;16.714;2022-11-20T16:31:32;-1.90;99.90
18175;DHT22;9212;50.894;16.714;2022-11-20T16:34:01;-2.00;99.90
18175;DHT22;9212;50.894;16.714;2022-11-20T16:36:30;-2.00;99.90
18175;DHT22;9212;50.894;16.714;2022-11-20T16:38:58;-1.90;99.90
18175;DHT22;9212;50.894;16.714;2022-11-20T16:41:26;-2.00;99.90
18175;DHT22;9212;50.894;16.714;2022-11-20T16:43:54;-1.70;99.90
18175;DHT22;9212;50.894;16.714;2022-11-20T16:46:24;-1.90;99.90
18175;DHT22;9212;50.894;16.714;2022-11-20T16:48:55;-2.30;99.90
18175;DHT22;9212;50.894;16.714;2022-11-20T16:51:23;-1.70;99.90